createdAt,value
2018-08-19T00:02:14.636Z,66.10
2018-08-19T00:04:43.568Z,66.00
2018-08-19T00:07:13.407Z,66.10
2018-08-19T00:09:41.998Z,66.30
2018-08-19T00:12:10.706Z,66.40
2018-08-19T00:14:39.361Z,66.10
2018-08-19T00:17:07.991Z,66.30
2018-08-19T00:19:36.774Z,66.40
2018-08-19T00:22:05.452Z,66.50
2018-08-19T00:24:34.349Z,66.40
2018-08-19T00:27:03.014Z,66.70
2018-08-19T00:29:37.669Z,66.30
2018-08-19T00:32:07.174Z,66.70
2018-08-19T00:34:36.104Z,66.70
2018-08-19T00:37:06.121Z,66.70
2018-08-19T00:39:35.125Z,66.80
2018-08-19T00:42:04.727Z,66.70
2018-08-19T00:44:33.991Z,66.90
2018-08-19T00:47:02.885Z,67.00
2018-08-19T00:49:31.835Z,67.10
2018-08-19T00:52:01.928Z,67.10
2018-08-19T00:54:32.662Z,67.40
2018-08-19T00:57:01.700Z,67.40
2018-08-19T00:59:31.814Z,67.60
2018-08-19T01:02:00.636Z,67.60
2018-08-19T01:04:29.700Z,67.30
2018-08-19T01:06:59.579Z,67.80
2018-08-19T01:09:30.362Z,67.90
2018-08-19T01:11:59.247Z,67.80
2018-08-19T01:14:27.896Z,68.10
2018-08-19T01:16:56.568Z,67.80
2018-08-19T01:19:25.341Z,68.00
2018-08-19T01:21:54.662Z,67.80
2018-08-19T01:24:23.606Z,67.90
2018-08-19T01:26:52.271Z,68.00
2018-08-19T01:29:31.610Z,68.00
2018-08-19T01:32:05.213Z,68.10
2018-08-19T01:34:34.963Z,68.30
2018-08-19T01:37:03.776Z,68.10
2018-08-19T01:39:32.566Z,68.00
2018-08-19T01:42:01.181Z,68.30
2018-08-19T01:44:29.862Z,68.30
2018-08-19T01:46:58.748Z,68.40
2018-08-19T01:49:28.453Z,68.40
2018-08-19T01:51:57.637Z,68.10
2018-08-19T01:54:26.532Z,68.40
2018-08-19T01:56:57.695Z,68.90
2018-08-19T01:59:34.098Z,69.10
2018-08-19T02:02:04.608Z,68.90
2018-08-19T02:04:35.466Z,68.90
2018-08-19T02:07:05.208Z,69.30
2018-08-19T02:09:34.334Z,68.60
2018-08-19T02:12:03.397Z,68.70
2018-08-19T02:14:32.502Z,69.70
2018-08-19T02:17:01.603Z,69.10
2018-08-19T02:19:30.820Z,69.10
2018-08-19T02:21:59.988Z,69.50
2018-08-19T02:24:29.212Z,69.70
2018-08-19T02:26:58.288Z,69.70
2018-08-19T02:29:37.932Z,70.10
2018-08-19T02:32:08.561Z,70.10
2018-08-19T02:34:41.021Z,69.40
2018-08-19T02:37:17.509Z,69.80
2018-08-19T02:39:48.426Z,69.50
2018-08-19T02:42:28.564Z,70.00
2018-08-19T02:45:06.325Z,70.00
2018-08-19T02:47:35.998Z,71.10
2018-08-19T02:50:05.663Z,71.10
2018-08-19T02:52:36.738Z,70.20
2018-08-19T02:55:07.516Z,70.70
2018-08-19T02:57:38.364Z,70.40
2018-08-19T03:00:08.261Z,70.30
2018-08-19T03:02:38.835Z,70.70
2018-08-19T03:05:14.408Z,70.70
2018-08-19T03:07:43.634Z,70.50
2018-08-19T03:10:13.497Z,70.70
2018-08-19T03:12:43.210Z,71.00
2018-08-19T03:15:14.014Z,70.70
2018-08-19T03:17:44.795Z,70.70
2018-08-19T03:20:14.219Z,71.00
2018-08-19T03:22:43.494Z,70.80
2018-08-19T03:25:12.940Z,71.20
2018-08-19T03:27:42.142Z,70.80
2018-08-19T03:30:12.701Z,71.00
2018-08-19T03:32:49.078Z,70.80
2018-08-19T03:35:19.256Z,71.00
2018-08-19T03:37:51.255Z,70.70
2018-08-19T03:40:20.690Z,71.50
2018-08-19T03:42:49.636Z,71.60
2018-08-19T03:45:20.875Z,70.50
2018-08-19T03:47:51.253Z,70.70
2018-08-19T03:50:24.634Z,70.90
2018-08-19T03:52:54.407Z,70.80
2018-08-19T03:55:31.282Z,70.80
2018-08-19T03:58:01.903Z,70.60
2018-08-19T04:00:35.118Z,71.00
2018-08-19T04:03:13.725Z,71.20
2018-08-19T04:05:54.896Z,71.30
2018-08-19T04:08:33.716Z,71.20
2018-08-19T04:11:05.800Z,71.60
2018-08-19T04:13:37.310Z,71.80
2018-08-19T04:16:07.747Z,71.30
2018-08-19T04:18:38.579Z,71.60
2018-08-19T04:21:12.929Z,71.60
2018-08-19T04:23:45.521Z,71.40
2018-08-19T04:26:14.825Z,71.70
2018-08-19T04:28:44.971Z,71.50
2018-08-19T04:31:19.170Z,72.30
2018-08-19T04:33:49.040Z,71.80
2018-08-19T04:36:19.249Z,71.90
2018-08-19T04:38:48.377Z,72.20
2018-08-19T04:41:17.351Z,72.20
2018-08-19T04:43:46.870Z,72.30
2018-08-19T04:46:15.532Z,72.10
2018-08-19T04:48:47.094Z,72.20
2018-08-19T04:51:15.946Z,72.30
2018-08-19T04:53:44.983Z,71.90
2018-08-19T04:56:13.835Z,72.10
2018-08-19T04:58:42.715Z,72.50
2018-08-19T05:01:12.663Z,72.40
2018-08-19T05:03:43.818Z,72.70
2018-08-19T05:06:14.804Z,72.40
2018-08-19T05:08:44.051Z,72.50
2018-08-19T05:11:12.704Z,72.10
2018-08-19T05:13:41.490Z,72.50
2018-08-19T05:16:10.468Z,72.10
2018-08-19T05:18:39.424Z,72.30
2018-08-19T05:21:13.358Z,72.10
2018-08-19T05:23:42.181Z,72.20
2018-08-19T05:26:13.036Z,72.50
2018-08-19T05:28:43.674Z,72.20
2018-08-19T05:31:12.643Z,72.10
2018-08-19T05:33:43.326Z,72.00
2018-08-19T05:36:12.205Z,72.40
2018-08-19T05:38:41.111Z,72.30
2018-08-19T05:41:11.075Z,72.00
2018-08-19T05:43:39.981Z,71.90
2018-08-19T05:46:08.802Z,72.50
2018-08-19T05:48:37.737Z,72.00
2018-08-19T05:51:06.739Z,72.00
2018-08-19T05:53:35.743Z,72.50
2018-08-19T05:56:12.670Z,72.00
2018-08-19T05:58:41.547Z,72.90
2018-08-19T06:01:10.827Z,72.70
2018-08-19T06:03:39.974Z,72.40
2018-08-19T06:06:09.398Z,72.60
2018-08-19T06:08:38.260Z,72.60
2018-08-19T06:11:08.186Z,72.50
2018-08-19T06:13:37.327Z,72.90
2018-08-19T06:16:06.590Z,73.10
2018-08-19T06:18:35.427Z,73.00
2018-08-19T06:21:04.610Z,73.20
2018-08-19T06:23:33.684Z,73.80
2018-08-19T06:26:02.970Z,73.80
2018-08-19T06:28:32.273Z,74.00
2018-08-19T06:31:01.468Z,73.40
2018-08-19T06:33:30.632Z,73.00
2018-08-19T06:35:59.777Z,73.00
2018-08-19T06:38:28.727Z,73.20
2018-08-19T06:40:57.825Z,73.10
2018-08-19T06:43:28.799Z,72.30
2018-08-19T06:45:58.068Z,72.40
2018-08-19T06:48:27.005Z,72.30
2018-08-19T06:50:56.155Z,72.50
2018-08-19T06:53:29.733Z,72.10
2018-08-19T06:56:00.228Z,72.20
2018-08-19T06:58:29.850Z,71.50
2018-08-19T07:00:59.017Z,71.70
2018-08-19T07:03:28.259Z,71.70
2018-08-19T07:06:08.545Z,71.90
2018-08-19T07:08:37.711Z,72.20
2018-08-19T07:11:10.470Z,72.70
2018-08-19T07:13:40.694Z,72.80
2018-08-19T07:16:10.394Z,72.90
2018-08-19T07:18:40.009Z,72.20
2018-08-19T07:21:10.160Z,72.10
2018-08-19T07:23:39.320Z,72.40
2018-08-19T07:26:08.429Z,72.30
2018-08-19T07:28:37.248Z,72.20
2018-08-19T07:31:06.522Z,72.40
2018-08-19T07:33:35.463Z,72.10
2018-08-19T07:36:04.262Z,72.30
2018-08-19T07:38:33.257Z,71.30
2018-08-19T07:41:02.582Z,71.10
2018-08-19T07:43:31.833Z,71.50
2018-08-19T07:46:00.852Z,71.60
2018-08-19T07:48:29.510Z,70.50
2018-08-19T07:50:58.335Z,71.40
2018-08-19T07:53:26.952Z,70.80
2018-08-19T07:55:55.703Z,70.40
2018-08-19T07:58:36.494Z,70.00
2018-08-19T08:01:05.104Z,69.70
2018-08-19T08:03:34.069Z,69.80
2018-08-19T08:06:02.822Z,69.50
2018-08-19T08:08:31.590Z,70.20
2018-08-19T08:11:00.528Z,70.00
2018-08-19T08:13:29.133Z,69.10
2018-08-19T08:15:58.709Z,69.50
2018-08-19T08:18:27.496Z,69.40
2018-08-19T08:21:14.898Z,69.00
2018-08-19T08:23:43.876Z,68.70
2018-08-19T08:26:12.760Z,68.70
2018-08-19T08:28:45.340Z,67.80
2018-08-19T08:31:14.279Z,67.70
2018-08-19T08:33:42.897Z,67.60
2018-08-19T08:36:11.537Z,67.30
2018-08-19T08:38:41.955Z,67.50
2018-08-19T08:41:11.063Z,66.60
2018-08-19T08:43:39.972Z,66.40
2018-08-19T08:46:08.926Z,66.10
2018-08-19T08:48:37.808Z,65.90
2018-08-19T08:51:06.660Z,65.50
2018-08-19T08:53:41.648Z,65.30
2018-08-19T08:56:10.852Z,65.10
2018-08-19T08:58:39.756Z,64.80
2018-08-19T09:01:08.700Z,65.00
2018-08-19T09:03:37.578Z,64.30
2018-08-19T09:06:15.488Z,63.40
2018-08-19T09:08:44.494Z,63.50
2018-08-19T09:11:13.492Z,63.50
2018-08-19T09:13:44.577Z,63.50
2018-08-19T09:16:13.356Z,64.40
2018-08-19T09:18:42.260Z,62.40
2018-08-19T09:21:11.147Z,61.90
2018-08-19T09:23:39.972Z,62.00
2018-08-19T09:26:09.095Z,60.90
2018-08-19T09:28:38.138Z,60.70
2018-08-19T09:31:07.089Z,60.80
2018-08-19T09:33:36.141Z,59.70
2018-08-19T09:36:04.996Z,59.90
2018-08-19T09:38:33.940Z,59.20
2018-08-19T09:41:02.732Z,58.90
2018-08-19T09:43:31.552Z,59.00
2018-08-19T09:46:00.293Z,58.20
2018-08-19T09:48:29.253Z,58.00
2018-08-19T09:51:02.352Z,56.50
2018-08-19T09:53:31.349Z,56.70
2018-08-19T09:56:05.315Z,56.90
2018-08-19T09:58:38.506Z,55.30
2018-08-19T10:01:20.753Z,56.00
2018-08-19T10:03:54.913Z,55.70
2018-08-19T10:06:28.645Z,55.10
2018-08-19T10:09:03.556Z,55.80
2018-08-19T10:11:44.340Z,54.50
2018-08-19T10:14:18.951Z,55.10
2018-08-19T10:16:52.239Z,55.10
2018-08-19T10:19:30.448Z,54.00
2018-08-19T10:22:08.380Z,53.70
2018-08-19T10:24:41.338Z,53.50
2018-08-19T10:27:19.057Z,53.30
2018-08-19T10:32:49.176Z,52.90
2018-08-19T10:35:24.025Z,53.30
2018-08-19T10:37:56.191Z,52.10
2018-08-19T10:40:30.084Z,52.30
2018-08-19T10:43:09.579Z,51.10
2018-08-19T10:45:44.127Z,52.00
2018-08-19T10:48:24.219Z,52.00
2018-08-19T10:50:56.677Z,51.50
2018-08-19T10:53:29.713Z,51.30
2018-08-19T10:56:03.995Z,52.30
2018-08-19T10:58:36.969Z,51.70
2018-08-19T11:01:10.747Z,51.40
2018-08-19T11:03:46.838Z,51.10
2018-08-19T11:06:21.044Z,51.20
2018-08-19T11:08:56.093Z,50.90
2018-08-19T11:11:31.020Z,51.30
2018-08-19T11:14:21.005Z,50.80
2018-08-19T11:16:51.741Z,50.90
2018-08-19T11:19:30.133Z,51.10
2018-08-19T11:22:04.944Z,51.10
2018-08-19T11:24:41.759Z,50.70
2018-08-19T11:27:12.801Z,50.70
2018-08-19T11:29:46.403Z,51.20
2018-08-19T11:35:07.737Z,50.20
2018-08-19T11:37:42.363Z,49.30
2018-08-19T11:40:17.194Z,49.50
2018-08-19T11:42:52.421Z,49.50
2018-08-19T11:45:25.765Z,49.00
2018-08-19T11:48:07.522Z,49.00
2018-08-19T11:50:40.849Z,48.80
2018-08-19T11:53:14.214Z,48.20
2018-08-19T11:55:57.644Z,48.00
2018-08-19T11:58:49.578Z,47.80
2018-08-19T12:01:22.769Z,46.80
2018-08-19T12:04:06.300Z,47.00
2018-08-19T12:06:40.622Z,46.50
2018-08-19T12:09:14.019Z,47.10
2018-08-19T12:11:49.028Z,46.70
2018-08-19T12:14:26.030Z,45.50
2018-08-19T12:17:00.835Z,46.20
2018-08-19T12:19:34.562Z,46.20
2018-08-19T12:22:08.068Z,45.00
2018-08-19T12:24:48.188Z,45.20
2018-08-19T12:27:24.541Z,45.30
2018-08-19T12:30:05.538Z,45.90
2018-08-19T12:32:39.382Z,46.00
2018-08-19T12:35:21.369Z,45.70
2018-08-19T12:37:53.716Z,46.00
2018-08-19T12:40:24.898Z,44.40
2018-08-19T12:42:57.245Z,45.00
2018-08-19T12:45:29.823Z,44.40
2018-08-19T12:48:00.589Z,44.00
2018-08-19T12:50:31.585Z,43.50
2018-08-19T12:53:03.263Z,42.80
2018-08-19T12:55:35.097Z,43.10
2018-08-19T12:58:09.103Z,43.30
2018-08-19T13:00:44.483Z,43.10
2018-08-19T13:03:16.222Z,42.50
2018-08-19T13:05:58.220Z,43.90
2018-08-19T13:08:30.470Z,43.70
2018-08-19T13:11:20.884Z,43.50
2018-08-19T13:13:52.438Z,42.40
2018-08-19T13:16:25.650Z,43.50
2018-08-19T13:18:57.512Z,43.50
2018-08-19T13:21:30.717Z,42.60
2018-08-19T13:24:03.383Z,42.30
2018-08-19T13:26:34.093Z,41.70
2018-08-19T13:29:05.917Z,42.80
2018-08-19T13:31:38.087Z,41.90
2018-08-19T13:34:11.859Z,42.50
2018-08-19T13:36:43.070Z,41.80
2018-08-19T13:39:15.142Z,41.60
2018-08-19T13:41:47.954Z,41.00
2018-08-19T13:44:24.974Z,41.00
2018-08-19T13:46:57.409Z,41.40
2018-08-19T13:49:28.906Z,40.30
2018-08-19T13:52:04.331Z,39.80
2018-08-19T13:54:35.644Z,40.70
2018-08-19T13:57:09.340Z,40.70
2018-08-19T13:59:43.663Z,41.20
2018-08-19T14:02:18.413Z,41.80
2018-08-19T14:04:50.552Z,41.40
2018-08-19T14:07:21.878Z,40.80
2018-08-19T14:09:55.204Z,40.90
2018-08-19T14:12:27.618Z,41.00
2018-08-19T14:15:00.669Z,41.10
2018-08-19T14:17:32.873Z,40.40
2018-08-19T14:20:10.124Z,40.50
2018-08-19T14:22:42.497Z,40.00
2018-08-19T14:25:14.460Z,39.40
2018-08-19T14:27:48.063Z,38.80
2018-08-19T14:30:24.562Z,37.90
2018-08-19T14:32:56.781Z,39.20
2018-08-19T14:35:32.205Z,38.50
2018-08-19T14:38:06.050Z,38.70
2018-08-19T14:40:37.876Z,39.00
2018-08-19T14:43:10.323Z,38.80
2018-08-19T14:45:41.181Z,38.60
2018-08-19T14:48:13.429Z,37.80
2018-08-19T14:50:50.091Z,38.50
2018-08-19T14:53:25.614Z,38.00
2018-08-19T14:56:07.339Z,39.00
2018-08-19T14:58:39.404Z,38.80
2018-08-19T15:01:09.205Z,39.80
2018-08-19T15:03:45.352Z,39.40
2018-08-19T15:06:16.815Z,38.70
2018-08-19T15:08:48.247Z,39.70
2018-08-19T15:11:24.221Z,38.90
2018-08-19T15:13:57.611Z,39.20
2018-08-19T15:16:28.646Z,39.00
2018-08-19T15:19:01.234Z,38.80
2018-08-19T15:21:36.051Z,39.00
2018-08-19T15:24:06.297Z,38.90
2018-08-19T15:26:39.571Z,39.80
2018-08-19T15:29:17.470Z,39.00
2018-08-19T15:31:50.049Z,39.10
2018-08-19T15:34:23.964Z,39.10
2018-08-19T15:36:56.849Z,38.80
2018-08-19T15:39:31.473Z,38.70
2018-08-19T15:42:02.973Z,39.00
2018-08-19T15:44:36.114Z,39.70
2018-08-19T15:47:08.544Z,39.40
2018-08-19T15:49:42.881Z,38.50
2018-08-19T15:52:11.523Z,38.60
2018-08-19T15:54:43.008Z,39.20
2018-08-19T15:57:11.669Z,39.00
2018-08-19T15:59:40.277Z,38.80
2018-08-19T16:02:08.923Z,39.00
2018-08-19T16:04:37.599Z,39.20
2018-08-19T16:07:06.293Z,40.00
2018-08-19T16:09:34.982Z,40.10
2018-08-19T16:12:03.710Z,39.90
2018-08-19T16:14:33.113Z,40.30
2018-08-19T16:17:02.998Z,39.70
2018-08-19T16:19:31.757Z,39.60
2018-08-19T16:22:00.785Z,40.50
2018-08-19T16:24:29.785Z,40.00
2018-08-19T16:26:58.635Z,39.90
2018-08-19T16:29:27.330Z,40.60
2018-08-19T16:31:55.993Z,40.20
2018-08-19T16:34:24.732Z,40.50
2018-08-19T16:36:53.387Z,40.40
2018-08-19T16:39:22.120Z,40.60
2018-08-19T16:41:50.813Z,41.10
2018-08-19T16:44:19.485Z,41.60
2018-08-19T16:46:48.141Z,42.80
2018-08-19T16:49:16.779Z,42.50
2018-08-19T16:51:45.445Z,43.20
2018-08-19T16:54:14.288Z,43.60
2018-08-19T16:56:42.957Z,44.30
2018-08-19T16:59:11.656Z,45.70
2018-08-19T17:01:40.297Z,45.40
2018-08-19T17:04:08.989Z,46.00
2018-08-19T17:06:39.214Z,45.90
2018-08-19T17:09:08.931Z,46.60
2018-08-19T17:11:37.511Z,46.40
2018-08-19T17:14:06.137Z,46.30
2018-08-19T17:16:34.830Z,45.70
2018-08-19T17:19:03.608Z,47.40
2018-08-19T17:21:32.320Z,47.20
2018-08-19T17:24:00.909Z,47.10
2018-08-19T17:26:29.862Z,47.30
2018-08-19T17:29:08.982Z,47.20
2018-08-19T17:31:39.732Z,47.40
2018-08-19T17:34:22.723Z,47.80
2018-08-19T17:36:55.433Z,47.60
2018-08-19T17:39:28.413Z,48.20
2018-08-19T17:42:02.266Z,48.00
2018-08-19T17:44:39.148Z,48.60
2018-08-19T17:47:12.162Z,48.20
2018-08-19T17:49:45.852Z,49.30
2018-08-19T17:52:14.839Z,48.50
2018-08-19T17:54:48.084Z,48.80
2018-08-19T17:57:22.295Z,48.80
2018-08-19T17:59:54.716Z,49.40
2018-08-19T18:02:27.805Z,48.80
2018-08-19T18:05:01.899Z,49.20
2018-08-19T18:07:34.720Z,49.40
2018-08-19T18:10:12.415Z,49.20
2018-08-19T18:12:46.855Z,49.90
2018-08-19T18:15:21.264Z,50.10
2018-08-19T18:18:01.859Z,50.40
2018-08-19T18:20:37.881Z,50.50
2018-08-19T18:23:14.974Z,51.60
2018-08-19T18:25:50.553Z,51.40
2018-08-19T18:28:26.660Z,51.10
2018-08-19T18:31:10.700Z,51.50
2018-08-19T18:33:54.435Z,51.80
2018-08-19T18:36:30.515Z,51.80
2018-08-19T18:39:01.008Z,52.30
2018-08-19T18:41:39.709Z,52.20
2018-08-19T18:44:12.243Z,52.60
2018-08-19T18:46:43.417Z,52.70
2018-08-19T18:49:14.884Z,52.80
2018-08-19T18:51:52.337Z,54.10
2018-08-19T18:54:31.981Z,53.90
2018-08-19T18:57:08.643Z,54.10
2018-08-19T18:59:46.493Z,54.00
2018-08-19T19:02:19.967Z,54.10
2018-08-19T19:04:53.331Z,54.20
2018-08-19T19:07:24.168Z,54.90
2018-08-19T19:09:56.479Z,54.90
2018-08-19T19:12:28.844Z,54.90
2018-08-19T19:15:02.497Z,55.00
2018-08-19T19:17:34.423Z,55.10
2018-08-19T19:20:08.864Z,55.30
2018-08-19T19:22:39.269Z,55.40
2018-08-19T19:25:11.289Z,55.40
2018-08-19T19:27:46.118Z,55.80
2018-08-19T19:30:21.023Z,56.20
2018-08-19T19:32:54.911Z,56.30
2018-08-19T19:35:27.709Z,56.70
2018-08-19T19:38:01.217Z,56.50
2018-08-19T19:40:31.356Z,56.70
2018-08-19T19:43:05.310Z,56.90
2018-08-19T19:45:57.778Z,57.00
2018-08-19T19:48:30.862Z,57.60
2018-08-19T19:51:02.588Z,57.70
2018-08-19T19:53:34.300Z,57.60
2018-08-19T19:56:11.025Z,57.70
2018-08-19T19:58:50.397Z,57.40
2018-08-19T20:01:19.805Z,57.70
2018-08-19T20:03:57.427Z,57.70
2018-08-19T20:06:31.795Z,58.40
2018-08-19T20:09:06.687Z,58.80
2018-08-19T20:11:39.521Z,59.00
2018-08-19T20:14:13.615Z,59.00
2018-08-19T20:16:46.252Z,59.20
2018-08-19T20:19:18.883Z,59.60
2018-08-19T20:21:51.961Z,59.30
2018-08-19T20:24:26.520Z,59.40
2018-08-19T20:26:59.266Z,59.70
2018-08-19T20:29:33.094Z,59.60
2018-08-19T20:32:07.984Z,60.00
2018-08-19T20:34:41.299Z,60.20
2018-08-19T20:37:13.656Z,60.30
2018-08-19T20:39:47.309Z,60.40
2018-08-19T20:42:17.777Z,60.00
2018-08-19T20:44:47.698Z,60.20
2018-08-19T20:47:16.561Z,60.50
2018-08-19T20:49:52.096Z,60.50
2018-08-19T20:52:47.217Z,60.90
2018-08-19T20:55:20.810Z,61.30
2018-08-19T20:57:54.796Z,61.00
2018-08-19T21:00:28.172Z,60.80
2018-08-19T21:03:01.699Z,60.80
2018-08-19T21:05:35.414Z,60.80
2018-08-19T21:08:17.885Z,61.00
2018-08-19T21:10:51.464Z,61.00
2018-08-19T21:13:23.835Z,61.00
2018-08-19T21:15:58.335Z,60.90
2018-08-19T21:18:32.779Z,61.40
2018-08-19T21:21:06.062Z,61.40
2018-08-19T21:23:38.464Z,61.60
2018-08-19T21:26:09.661Z,61.30
2018-08-19T21:28:41.028Z,61.40
2018-08-19T21:31:12.083Z,61.40
2018-08-19T21:33:44.774Z,61.70
2018-08-19T21:36:17.906Z,61.70
2018-08-19T21:38:51.575Z,61.80
2018-08-19T21:41:23.938Z,62.20
2018-08-19T21:43:56.096Z,63.20
2018-08-19T21:46:30.770Z,63.60
2018-08-19T21:49:04.454Z,63.80
2018-08-19T21:51:39.303Z,64.20
2018-08-19T21:54:12.836Z,64.20
2018-08-19T21:56:47.552Z,64.10
2018-08-19T21:59:26.853Z,64.00
2018-08-19T22:02:02.475Z,64.40
2018-08-19T22:04:36.832Z,64.40
2018-08-19T22:07:12.232Z,64.50
2018-08-19T22:09:41.058Z,65.00
2018-08-19T22:12:09.766Z,65.30
2018-08-19T22:14:38.374Z,65.50
2018-08-19T22:17:10.077Z,65.30
2018-08-19T22:19:39.126Z,65.20
2018-08-19T22:22:08.246Z,65.80
2018-08-19T22:24:37.257Z,65.80
2018-08-19T22:27:14.384Z,65.70
2018-08-19T22:29:43.308Z,66.30
2018-08-19T22:32:12.434Z,66.90
2018-08-19T22:34:42.194Z,66.70
2018-08-19T22:37:11.099Z,66.70
2018-08-19T22:39:39.864Z,66.70
2018-08-19T22:42:08.881Z,66.40
2018-08-19T22:44:38.131Z,66.30
2018-08-19T22:47:07.376Z,66.20
2018-08-19T22:49:36.528Z,65.90
2018-08-19T22:52:18.232Z,65.90
2018-08-19T22:54:47.486Z,66.90
2018-08-19T22:57:16.764Z,67.20
2018-08-19T22:59:45.905Z,68.40
2018-08-19T23:02:15.966Z,68.40
2018-08-19T23:04:46.307Z,68.20
2018-08-19T23:07:15.573Z,68.10
2018-08-19T23:09:44.640Z,68.30
2018-08-19T23:12:13.404Z,67.80
2018-08-19T23:14:53.032Z,68.00
2018-08-19T23:17:21.725Z,67.80
2018-08-19T23:19:51.440Z,67.80
2018-08-19T23:22:20.101Z,67.60
2018-08-19T23:24:48.822Z,67.60
2018-08-19T23:27:17.479Z,68.00
2018-08-19T23:29:46.247Z,67.70
2018-08-19T23:32:15.037Z,67.80
2018-08-19T23:34:44.529Z,67.90
2018-08-19T23:37:13.209Z,68.20
2018-08-19T23:39:41.901Z,68.20
2018-08-19T23:42:10.528Z,68.20
2018-08-19T23:44:39.249Z,68.70
2018-08-19T23:47:07.946Z,68.70
2018-08-19T23:49:36.534Z,68.80
2018-08-19T23:52:05.233Z,69.00
2018-08-19T23:54:33.845Z,68.90
2018-08-19T23:57:02.553Z,68.60
2018-08-19T23:59:36.590Z,68.50
